createdAt,value
2018-08-11T00:01:46.946Z,39.98
2018-08-11T00:04:15.918Z,39.74
2018-08-11T00:06:45.529Z,40.72
2018-08-11T00:09:14.697Z,40.58
2018-08-11T00:11:42.982Z,41.07
2018-08-11T00:14:11.270Z,41.14
2018-08-11T00:16:40.242Z,40.74
2018-08-11T00:19:08.344Z,41.39
2018-08-11T00:21:36.455Z,41.02
2018-08-11T00:24:04.647Z,41.17
2018-08-11T00:26:32.722Z,41.72
2018-08-11T00:29:01.379Z,41.93
2018-08-11T00:31:30.002Z,41.71
2018-08-11T00:33:58.302Z,42.22
2018-08-11T00:36:26.527Z,41.18
2018-08-11T00:38:54.637Z,41.55
2018-08-11T00:41:22.733Z,41.68
2018-08-11T00:43:50.951Z,42.14
2018-08-11T00:46:19.087Z,41.86
2018-08-11T00:48:47.241Z,41.08
2018-08-11T00:51:15.386Z,41.42
2018-08-11T00:53:43.517Z,41.38
2018-08-11T00:56:11.730Z,41.20
2018-08-11T00:58:39.820Z,41.79
2018-08-11T01:01:08.029Z,41.24
2018-08-11T01:03:36.074Z,41.59
2018-08-11T01:06:04.631Z,41.18
2018-08-11T01:08:32.873Z,41.42
2018-08-11T01:11:00.961Z,41.86
2018-08-11T01:13:29.723Z,40.96
2018-08-11T01:15:57.808Z,41.48
2018-08-11T01:18:26.052Z,40.26
2018-08-11T01:20:54.189Z,40.63
2018-08-11T01:23:22.226Z,41.00
2018-08-11T01:25:56.641Z,40.64
2018-08-11T01:28:24.754Z,42.17
2018-08-11T01:30:53.094Z,41.33
2018-08-11T01:33:21.781Z,41.88
2018-08-11T01:35:50.761Z,41.43
2018-08-11T01:38:19.449Z,41.36
2018-08-11T01:40:47.882Z,41.76
2018-08-11T01:43:16.075Z,41.55
2018-08-11T01:45:44.391Z,41.89
2018-08-11T01:48:12.515Z,42.99
2018-08-11T01:50:40.634Z,41.54
2018-08-11T01:53:08.778Z,41.99
2018-08-11T01:55:36.908Z,42.36
2018-08-11T01:58:05.064Z,42.33
2018-08-11T02:00:33.129Z,42.66
2018-08-11T02:03:01.811Z,42.57
2018-08-11T02:05:29.935Z,43.38
2018-08-11T02:07:58.029Z,43.45
2018-08-11T02:10:26.676Z,43.56
2018-08-11T02:12:54.902Z,43.71
2018-08-11T02:15:23.694Z,44.05
2018-08-11T02:17:51.771Z,43.49
2018-08-11T02:20:20.252Z,44.12
2018-08-11T02:22:49.946Z,43.57
2018-08-11T02:25:18.015Z,44.89
2018-08-11T02:27:46.096Z,44.35
2018-08-11T02:30:16.599Z,44.76
2018-08-11T02:32:44.724Z,44.71
2018-08-11T02:35:13.827Z,44.79
2018-08-11T02:37:42.487Z,44.39
2018-08-11T02:40:12.833Z,44.26
2018-08-11T02:42:41.130Z,45.60
2018-08-11T02:45:11.412Z,45.24
2018-08-11T02:47:39.618Z,45.46
2018-08-11T02:50:09.410Z,45.11
2018-08-11T02:52:37.790Z,45.05
2018-08-11T02:55:06.061Z,45.83
2018-08-11T02:57:34.322Z,45.80
2018-08-11T03:00:02.574Z,45.28
2018-08-11T03:02:30.765Z,45.10
2018-08-11T03:04:58.856Z,44.80
2018-08-11T03:07:26.968Z,45.42
2018-08-11T03:09:55.074Z,45.22
2018-08-11T03:12:23.641Z,45.69
2018-08-11T03:14:51.726Z,45.15
2018-08-11T03:17:21.396Z,45.70
2018-08-11T03:19:49.591Z,45.04
2018-08-11T03:22:18.677Z,45.98
2018-08-11T03:24:47.083Z,45.55
2018-08-11T03:27:16.295Z,46.37
2018-08-11T03:29:45.022Z,45.78
2018-08-11T03:32:13.691Z,45.87
2018-08-11T03:34:41.807Z,45.85
2018-08-11T03:37:09.967Z,45.59
2018-08-11T03:39:38.214Z,46.75
2018-08-11T03:42:06.358Z,45.44
2018-08-11T03:44:34.706Z,46.50
2018-08-11T03:47:03.344Z,46.88
2018-08-11T03:49:31.439Z,46.58
2018-08-11T03:51:59.554Z,46.14
2018-08-11T03:54:27.887Z,46.35
2018-08-11T03:56:56.702Z,46.88
2018-08-11T03:59:24.780Z,46.74
2018-08-11T04:01:52.967Z,46.34
2018-08-11T04:04:21.413Z,46.50
2018-08-11T04:06:49.747Z,46.98
2018-08-11T04:09:17.795Z,46.32
2018-08-11T04:11:46.418Z,46.92
2018-08-11T04:14:14.493Z,47.50
2018-08-11T04:16:42.928Z,47.91
2018-08-11T04:19:10.984Z,46.82
2018-08-11T04:21:39.091Z,46.46
2018-08-11T04:24:07.870Z,47.18
2018-08-11T04:26:36.693Z,47.51
2018-08-11T04:29:04.793Z,48.29
2018-08-11T04:31:33.117Z,48.08
2018-08-11T04:34:01.226Z,47.32
2018-08-11T04:36:29.452Z,47.65
2018-08-11T04:38:57.837Z,47.88
2018-08-11T04:41:25.934Z,46.83
2018-08-11T04:43:53.991Z,47.81
2018-08-11T04:46:22.222Z,48.36
2018-08-11T04:48:50.333Z,48.55
2018-08-11T04:51:18.648Z,48.72
2018-08-11T04:53:46.790Z,48.32
2018-08-11T04:56:14.911Z,48.41
2018-08-11T04:58:43.030Z,48.29
2018-08-11T05:01:11.245Z,48.15
2018-08-11T05:03:40.329Z,48.22
2018-08-11T05:06:08.571Z,48.23
2018-08-11T05:08:36.784Z,49.04
2018-08-11T05:11:05.246Z,49.39
2018-08-11T05:13:33.278Z,48.99
2018-08-11T05:16:01.426Z,48.15
2018-08-11T05:18:29.469Z,48.75
2018-08-11T05:20:57.566Z,48.38
2018-08-11T05:23:25.649Z,48.63
2018-08-11T05:25:53.759Z,48.67
2018-08-11T05:28:21.811Z,48.33
2018-08-11T05:30:50.064Z,48.88
2018-08-11T05:33:18.113Z,47.91
2018-08-11T05:35:46.183Z,48.36
2018-08-11T05:38:14.321Z,47.26
2018-08-11T05:40:42.644Z,47.65
2018-08-11T05:43:10.755Z,47.31
2018-08-11T05:45:38.957Z,47.86
2018-08-11T05:48:07.146Z,47.52
2018-08-11T05:50:35.189Z,47.74
2018-08-11T05:53:03.332Z,46.78
2018-08-11T05:55:31.561Z,46.05
2018-08-11T05:57:59.872Z,46.66
2018-08-11T06:00:28.047Z,46.39
2018-08-11T06:02:56.137Z,46.79
2018-08-11T06:05:24.535Z,46.40
2018-08-11T06:07:52.663Z,46.51
2018-08-11T06:10:20.819Z,46.54
2018-08-11T06:12:48.910Z,47.44
2018-08-11T06:15:17.220Z,46.81
2018-08-11T06:17:45.278Z,46.22
2018-08-11T06:20:13.381Z,47.36
2018-08-11T06:22:41.447Z,47.03
2018-08-11T06:25:10.747Z,47.11
2018-08-11T06:27:39.026Z,47.20
2018-08-11T06:30:08.754Z,46.57
2018-08-11T06:32:37.115Z,46.85
2018-08-11T06:35:05.937Z,47.63
2018-08-11T06:37:34.036Z,48.88
2018-08-11T06:40:02.066Z,47.52
2018-08-11T06:42:30.214Z,48.18
2018-08-11T06:44:58.345Z,55.51
2018-08-11T06:47:26.418Z,50.66
2018-08-11T06:49:54.561Z,52.06
2018-08-11T06:52:22.649Z,52.61
2018-08-11T06:54:50.843Z,50.91
2018-08-11T06:57:19.038Z,50.20
2018-08-11T06:59:47.178Z,49.48
2018-08-11T07:02:15.354Z,49.63
2018-08-11T07:04:43.485Z,51.20
2018-08-11T07:07:11.651Z,49.42
2018-08-11T07:09:40.210Z,49.49
2018-08-11T07:12:08.546Z,49.92
2018-08-11T07:14:36.605Z,48.94
2018-08-11T07:17:04.722Z,50.10
2018-08-11T07:19:32.794Z,50.95
2018-08-11T07:22:01.081Z,48.76
2018-08-11T07:24:29.142Z,49.39
2018-08-11T07:26:57.233Z,48.46
2018-08-11T07:29:25.368Z,48.21
2018-08-11T07:31:53.494Z,48.68
2018-08-11T07:34:21.755Z,48.62
2018-08-11T07:36:50.635Z,49.27
2018-08-11T07:39:18.750Z,50.26
2018-08-11T07:41:46.897Z,48.71
2018-08-11T07:44:15.070Z,46.97
2018-08-11T07:46:43.147Z,46.39
2018-08-11T07:49:11.202Z,48.35
2018-08-11T07:51:39.257Z,48.58
2018-08-11T07:54:07.323Z,49.57
2018-08-11T07:56:35.412Z,48.11
2018-08-11T07:59:03.459Z,48.02
2018-08-11T08:01:31.521Z,49.39
2018-08-11T08:03:59.627Z,49.23
2018-08-11T08:06:27.790Z,49.17
2018-08-11T08:08:55.843Z,49.44
2018-08-11T08:11:23.959Z,48.75
2018-08-11T08:13:52.054Z,48.59
2018-08-11T08:16:20.962Z,49.48
2018-08-11T08:18:49.050Z,49.09
2018-08-11T08:21:17.155Z,47.78
2018-08-11T08:23:45.219Z,47.00
2018-08-11T08:26:13.395Z,47.33
2018-08-11T08:28:41.478Z,47.46
2018-08-11T08:31:09.687Z,47.42
2018-08-11T08:33:37.779Z,47.80
2018-08-11T08:36:05.809Z,46.97
2018-08-11T08:38:34.142Z,46.97
2018-08-11T08:41:02.251Z,47.64
2018-08-11T08:43:30.691Z,47.58
2018-08-11T08:45:58.902Z,46.75
2018-08-11T08:48:27.046Z,46.71
2018-08-11T08:50:55.111Z,46.41
2018-08-11T08:53:23.193Z,46.01
2018-08-11T08:55:51.208Z,45.49
2018-08-11T08:58:19.302Z,44.29
2018-08-11T09:00:47.433Z,44.29
2018-08-11T09:03:15.562Z,42.39
2018-08-11T09:05:43.651Z,41.62
2018-08-11T09:08:11.743Z,42.38
2018-08-11T09:10:39.864Z,41.41
2018-08-11T09:13:07.913Z,40.91
2018-08-11T09:15:36.139Z,41.25
2018-08-11T09:18:04.566Z,40.92
2018-08-11T09:20:32.669Z,40.44
2018-08-11T09:23:00.736Z,41.97
2018-08-11T09:25:29.131Z,42.17
2018-08-11T09:27:57.286Z,41.38
2018-08-11T09:30:26.496Z,41.38
2018-08-11T09:32:54.601Z,39.79
2018-08-11T09:35:22.694Z,39.18
2018-08-11T09:37:51.307Z,40.98
2018-08-11T09:40:19.693Z,41.02
2018-08-11T09:42:48.194Z,40.51
2018-08-11T09:45:17.191Z,40.42
2018-08-11T09:47:45.686Z,38.93
2018-08-11T09:50:13.749Z,38.27
2018-08-11T09:52:42.424Z,38.45
2018-08-11T09:55:10.600Z,37.61
2018-08-11T09:57:38.715Z,37.36
2018-08-11T10:00:08.622Z,37.58
2018-08-11T10:02:36.670Z,36.99
2018-08-11T10:05:05.438Z,37.51
2018-08-11T10:07:34.107Z,38.09
2018-08-11T10:10:02.241Z,36.55
2018-08-11T10:12:30.568Z,37.57
2018-08-11T10:14:59.629Z,37.72
2018-08-11T10:17:28.271Z,39.37
2018-08-11T10:19:56.388Z,38.52
2018-08-11T10:22:26.344Z,39.12
2018-08-11T10:24:54.705Z,37.94
2018-08-11T10:27:22.798Z,38.15
2018-08-11T10:29:50.991Z,38.66
2018-08-11T10:32:19.109Z,38.56
2018-08-11T10:34:47.167Z,38.55
2018-08-11T10:37:15.292Z,37.42
2018-08-11T10:39:43.334Z,36.94
2018-08-11T10:42:11.387Z,36.60
2018-08-11T10:44:39.563Z,36.89
2018-08-11T10:47:07.775Z,36.94
2018-08-11T10:49:35.823Z,37.00
2018-08-11T10:52:03.990Z,34.96
2018-08-11T10:54:32.081Z,35.21
2018-08-11T10:57:00.224Z,35.62
2018-08-11T10:59:28.462Z,33.54
2018-08-11T11:01:56.534Z,34.52
2018-08-11T11:04:24.653Z,35.02
2018-08-11T11:06:52.758Z,34.75
2018-08-11T11:09:21.657Z,33.80
2018-08-11T11:11:49.799Z,34.26
2018-08-11T11:14:17.868Z,34.39
2018-08-11T11:16:46.005Z,33.01
2018-08-11T11:19:14.230Z,33.85
2018-08-11T11:21:42.520Z,35.49
2018-08-11T11:24:10.770Z,35.42
2018-08-11T11:26:38.845Z,32.30
2018-08-11T11:29:06.904Z,31.73
2018-08-11T11:31:34.933Z,31.37
2018-08-11T11:34:03.015Z,30.03
2018-08-11T11:36:31.111Z,29.00
2018-08-11T11:38:59.246Z,28.03
2018-08-11T11:41:27.296Z,28.60
2018-08-11T11:43:55.367Z,27.72
2018-08-11T11:46:23.422Z,26.33
2018-08-11T11:48:52.539Z,25.22
2018-08-11T11:51:20.698Z,25.53
2018-08-11T11:53:48.811Z,24.62
2018-08-11T11:56:17.061Z,24.83
2018-08-11T11:58:45.658Z,23.64
2018-08-11T12:01:13.891Z,22.66
2018-08-11T12:03:42.224Z,22.84
2018-08-11T12:06:10.327Z,21.26
2018-08-11T12:08:38.375Z,21.94
2018-08-11T12:11:06.508Z,20.70
2018-08-11T12:13:34.564Z,19.96
2018-08-11T12:16:02.705Z,19.84
2018-08-11T12:18:31.037Z,19.85
2018-08-11T12:20:59.262Z,19.35
2018-08-11T12:23:27.319Z,19.08
2018-08-11T12:25:55.685Z,19.35
2018-08-11T12:28:23.751Z,18.68
2018-08-11T12:30:52.002Z,18.57
2018-08-11T12:33:20.095Z,18.57
2018-08-11T12:35:48.762Z,17.56
2018-08-11T12:38:17.194Z,17.14
2018-08-11T12:40:45.340Z,16.59
2018-08-11T12:43:13.502Z,15.25
2018-08-11T12:45:41.980Z,17.41
2018-08-11T12:48:10.271Z,17.79
2018-08-11T12:50:38.563Z,17.02
2018-08-11T12:53:06.670Z,16.51
2018-08-11T12:55:34.985Z,15.59
2018-08-11T12:58:04.199Z,14.05
2018-08-11T13:00:32.827Z,16.65
2018-08-11T13:03:01.168Z,19.17
2018-08-11T13:05:29.534Z,15.47
2018-08-11T13:07:57.717Z,16.81
2018-08-11T13:10:26.106Z,13.69
2018-08-11T13:12:54.347Z,12.85
2018-08-11T13:15:22.618Z,12.40
2018-08-11T13:17:50.693Z,12.48
2018-08-11T13:20:18.834Z,12.59
2018-08-11T13:22:47.327Z,13.21
2018-08-11T13:25:15.415Z,10.76
2018-08-11T13:27:43.723Z,14.68
2018-08-11T13:30:11.951Z,13.08
2018-08-11T13:32:40.060Z,10.82
2018-08-11T13:35:08.201Z,10.72
2018-08-11T13:37:36.319Z,10.95
2018-08-11T13:40:04.659Z,10.40
2018-08-11T13:42:32.884Z,11.39
2018-08-11T13:45:01.064Z,15.84
2018-08-11T13:47:29.433Z,15.61
2018-08-11T13:49:57.592Z,11.02
2018-08-11T13:52:25.769Z,9.79
2018-08-11T13:54:53.990Z,13.72
2018-08-11T13:57:22.670Z,10.59
2018-08-11T13:59:50.927Z,10.71
2018-08-11T14:02:18.996Z,10.45
2018-08-11T14:04:47.245Z,10.00
2018-08-11T14:07:15.559Z,10.38
2018-08-11T14:09:43.837Z,10.38
2018-08-11T14:12:12.422Z,10.64
2018-08-11T14:17:16.986Z,9.69
2018-08-11T14:19:46.739Z,8.71
2018-08-11T14:22:15.334Z,8.88
2018-08-11T14:24:43.447Z,8.96
2018-08-11T14:27:11.547Z,15.34
2018-08-11T14:29:39.814Z,15.28
2018-08-11T14:32:07.936Z,16.15
2018-08-11T14:34:36.148Z,15.19
2018-08-11T14:37:12.106Z,10.57
2018-08-11T14:39:40.362Z,9.29
2018-08-11T14:42:08.525Z,9.95
2018-08-11T14:44:36.817Z,14.41
2018-08-11T14:47:05.069Z,13.67
2018-08-11T14:49:33.092Z,11.59
2018-08-11T14:52:01.274Z,9.03
2018-08-11T14:54:29.410Z,8.51
2018-08-11T14:56:57.708Z,9.08
2018-08-11T14:59:25.906Z,14.76
2018-08-11T15:01:54.480Z,11.88
2018-08-11T15:04:26.903Z,11.37
2018-08-11T15:06:55.020Z,10.29
2018-08-11T15:09:23.831Z,11.68
2018-08-11T15:11:53.551Z,16.47
2018-08-11T15:14:22.799Z,14.04
2018-08-11T15:16:50.870Z,9.20
2018-08-11T15:19:18.943Z,12.47
2018-08-11T15:21:47.059Z,9.79
2018-08-11T15:24:15.310Z,9.47
2018-08-11T15:26:43.411Z,9.46
2018-08-11T15:29:11.784Z,8.62
2018-08-11T15:31:39.934Z,9.93
2018-08-11T15:34:08.223Z,9.37
2018-08-11T15:36:36.675Z,8.71
2018-08-11T15:39:09.072Z,9.30
2018-08-11T15:41:37.346Z,9.06
2018-08-11T15:44:05.627Z,8.69
2018-08-11T15:46:33.765Z,9.29
2018-08-11T15:49:01.960Z,9.88
2018-08-11T15:51:30.192Z,9.32
2018-08-11T15:53:58.443Z,8.67
2018-08-11T15:56:26.553Z,9.51
2018-08-11T15:58:55.114Z,9.42
2018-08-11T16:01:23.475Z,9.33
2018-08-11T16:03:51.624Z,10.19
2018-08-11T16:06:20.298Z,10.93
2018-08-11T16:08:48.593Z,10.39
2018-08-11T16:11:16.739Z,10.31
2018-08-11T16:13:44.903Z,10.33
2018-08-11T16:16:15.236Z,11.71
2018-08-11T16:18:43.386Z,10.88
2018-08-11T16:21:11.620Z,10.87
2018-08-11T16:23:39.812Z,11.21
2018-08-11T16:26:08.123Z,11.38
2018-08-11T16:28:36.326Z,11.53
2018-08-11T16:31:04.441Z,13.48
2018-08-11T16:33:38.914Z,15.83
2018-08-11T16:36:07.150Z,16.44
2018-08-11T16:38:36.074Z,16.83
2018-08-11T16:41:05.880Z,17.08
2018-08-11T16:43:34.009Z,17.75
2018-08-11T16:46:02.556Z,18.91
2018-08-11T16:48:30.725Z,18.40
2018-08-11T16:50:58.906Z,17.99
2018-08-11T16:53:27.163Z,19.56
2018-08-11T16:55:55.253Z,19.06
2018-08-11T16:58:23.488Z,19.22
2018-08-11T17:00:51.747Z,18.96
2018-08-11T17:03:19.741Z,20.37
2018-08-11T17:05:47.976Z,20.60
2018-08-11T17:08:15.974Z,19.91
2018-08-11T17:10:44.040Z,20.25
2018-08-11T17:13:12.124Z,20.34
2018-08-11T17:15:40.243Z,20.21
2018-08-11T17:18:08.291Z,20.63
2018-08-11T17:20:36.381Z,20.30
2018-08-11T17:23:04.494Z,20.38
2018-08-11T17:25:32.565Z,20.15
2018-08-11T17:28:00.995Z,21.11
2018-08-11T17:30:29.041Z,20.39
2018-08-11T17:32:57.126Z,20.48
2018-08-11T17:35:25.188Z,20.63
2018-08-11T17:37:53.407Z,21.11
2018-08-11T17:40:22.333Z,21.46
2018-08-11T17:42:50.853Z,22.01
2018-08-11T17:45:18.935Z,21.06
2018-08-11T17:47:47.633Z,21.69
2018-08-11T17:50:15.755Z,22.37
2018-08-11T17:52:43.882Z,22.00
2018-08-11T17:55:12.067Z,22.23
2018-08-11T17:57:40.319Z,21.84
2018-08-11T18:00:08.517Z,22.46
2018-08-11T18:02:36.790Z,22.78
2018-08-11T18:05:06.755Z,22.54
2018-08-11T18:07:35.583Z,22.29
2018-08-11T18:10:03.807Z,23.00
2018-08-11T18:12:32.457Z,23.31
2018-08-11T18:15:00.530Z,23.21
2018-08-11T18:17:28.837Z,23.13
2018-08-11T18:19:57.202Z,23.28
2018-08-11T18:22:25.353Z,23.20
2018-08-11T18:24:53.604Z,23.72
2018-08-11T18:27:21.848Z,23.86
2018-08-11T18:29:49.995Z,24.03
2018-08-11T18:32:18.125Z,24.01
2018-08-11T18:34:46.487Z,24.13
2018-08-11T18:37:14.536Z,24.17
2018-08-11T18:39:43.661Z,25.04
2018-08-11T18:42:12.210Z,25.11
2018-08-11T18:44:40.913Z,25.47
2018-08-11T18:47:09.045Z,25.58
2018-08-11T18:49:37.115Z,25.45
2018-08-11T18:52:05.316Z,25.82
2018-08-11T18:54:33.920Z,25.90
2018-08-11T18:57:02.130Z,26.61
2018-08-11T18:59:30.350Z,25.88
2018-08-11T19:01:58.462Z,26.34
2018-08-11T19:04:26.646Z,26.86
2018-08-11T19:06:54.806Z,26.47
2018-08-11T19:09:23.649Z,27.00
2018-08-11T19:11:52.033Z,26.32
2018-08-11T19:14:20.683Z,26.46
2018-08-11T19:16:49.026Z,26.80
2018-08-11T19:19:17.166Z,27.12
2018-08-11T19:21:45.441Z,27.20
2018-08-11T19:24:13.605Z,26.99
2018-08-11T19:26:41.711Z,26.54
2018-08-11T19:29:09.857Z,26.93
2018-08-11T19:31:38.059Z,27.45
2018-08-11T19:34:06.362Z,27.30
2018-08-11T19:36:34.520Z,27.17
2018-08-11T19:39:04.191Z,27.20
2018-08-11T19:41:32.367Z,27.88
2018-08-11T19:44:00.707Z,28.29
2018-08-11T19:46:28.963Z,28.26
2018-08-11T19:48:57.001Z,28.23
2018-08-11T19:51:25.245Z,28.15
2018-08-11T19:53:54.070Z,28.60
2018-08-11T19:56:22.141Z,28.50
2018-08-11T19:58:50.264Z,28.93
2018-08-11T20:01:18.457Z,28.15
2018-08-11T20:03:46.574Z,28.08
2018-08-11T20:06:14.731Z,28.29
2018-08-11T20:08:42.803Z,28.19
2018-08-11T20:11:10.915Z,29.09
2018-08-11T20:13:38.982Z,29.21
2018-08-11T20:16:07.259Z,29.64
2018-08-11T20:18:35.346Z,29.13
2018-08-11T20:21:03.411Z,29.36
2018-08-11T20:23:31.551Z,29.60
2018-08-11T20:25:59.616Z,29.88
2018-08-11T20:28:27.700Z,29.63
2018-08-11T20:30:55.856Z,29.89
2018-08-11T20:33:24.070Z,29.97
2018-08-11T20:35:52.116Z,30.64
2018-08-11T20:38:29.006Z,30.66
2018-08-11T20:41:12.278Z,31.32
2018-08-11T20:43:40.514Z,30.71
2018-08-11T20:46:08.625Z,31.09
2018-08-11T20:48:36.685Z,31.28
2018-08-11T20:51:04.779Z,32.10
2018-08-11T20:53:32.878Z,32.28
2018-08-11T20:56:01.366Z,31.23
2018-08-11T20:58:29.477Z,31.23
2018-08-11T21:00:57.583Z,31.73
2018-08-11T21:03:25.691Z,31.70
2018-08-11T21:05:54.216Z,31.26
2018-08-11T21:08:22.356Z,31.57
2018-08-11T21:10:50.844Z,32.67
2018-08-11T21:13:18.935Z,31.64
2018-08-11T21:15:46.987Z,32.73
2018-08-11T21:18:15.017Z,33.11
2018-08-11T21:20:43.092Z,32.42
2018-08-11T21:23:11.239Z,32.80
2018-08-11T21:25:39.408Z,33.33
2018-08-11T21:28:07.783Z,32.77
2018-08-11T21:30:35.890Z,33.41
2018-08-11T21:33:04.091Z,33.84
2018-08-11T21:35:32.153Z,33.37
2018-08-11T21:38:00.419Z,34.04
2018-08-11T21:40:28.468Z,34.24
2018-08-11T21:42:56.588Z,34.05
2018-08-11T21:45:24.669Z,34.52
2018-08-11T21:47:52.773Z,35.16
2018-08-11T21:50:20.802Z,34.56
2018-08-11T21:52:48.907Z,35.40
2018-08-11T21:55:16.975Z,34.74
2018-08-11T21:57:45.178Z,35.21
2018-08-11T22:00:23.805Z,35.05
2018-08-11T22:02:51.887Z,35.52
2018-08-11T22:05:20.048Z,36.56
2018-08-11T22:07:48.269Z,36.18
2018-08-11T22:10:16.499Z,36.14
2018-08-11T22:12:44.624Z,36.23
2018-08-11T22:15:15.682Z,37.08
2018-08-11T22:17:43.775Z,37.14
2018-08-11T22:20:11.867Z,36.32
2018-08-11T22:22:40.142Z,37.33
2018-08-11T22:25:09.722Z,37.17
2018-08-11T22:27:37.967Z,36.80
2018-08-11T22:30:06.720Z,36.75
2018-08-11T22:32:35.152Z,37.06
2018-08-11T22:35:04.065Z,37.48
2018-08-11T22:37:32.646Z,37.29
2018-08-11T22:40:00.897Z,37.86
2018-08-11T22:42:29.045Z,37.57
2018-08-11T22:44:57.117Z,37.47
2018-08-11T22:47:25.549Z,38.02
2018-08-11T22:49:53.487Z,38.58
2018-08-11T22:52:21.555Z,38.00
2018-08-11T22:54:49.625Z,38.24
2018-08-11T22:57:17.725Z,39.29
2018-08-11T22:59:45.808Z,38.92
2018-08-11T23:02:14.002Z,38.97
2018-08-11T23:04:42.434Z,39.37
2018-08-11T23:07:10.554Z,39.40
2018-08-11T23:09:38.892Z,38.83
2018-08-11T23:12:07.402Z,39.29
2018-08-11T23:14:35.669Z,39.60
2018-08-11T23:17:03.762Z,39.86
2018-08-11T23:19:31.912Z,39.70
2018-08-11T23:22:00.108Z,39.46
2018-08-11T23:24:28.337Z,39.71
2018-08-11T23:26:56.459Z,40.01
2018-08-11T23:29:25.559Z,40.12
2018-08-11T23:31:53.660Z,39.88
2018-08-11T23:34:21.715Z,40.84
2018-08-11T23:36:49.908Z,41.20
2018-08-11T23:39:18.241Z,42.08
2018-08-11T23:41:46.579Z,41.52
2018-08-11T23:44:14.937Z,41.39
2018-08-11T23:46:43.029Z,42.06
2018-08-11T23:49:11.253Z,42.94
2018-08-11T23:51:39.309Z,42.15
2018-08-11T23:54:07.652Z,42.27
2018-08-11T23:56:35.703Z,42.84
2018-08-11T23:59:03.777Z,42.57
